Terminal Aerodrome Forecast
Issued by NWS

Home | Current Version | Previous Version | Text Only | Print | Product List | Glossary On
Versions: 1 2 3 4 5 6 7 8 9 10 11 12 13 14 15 16 17 18 19 20
000
FTUS41 KPHI 281100
TAFMIV
TAF
KMIV 281129Z 2812/2912 29006KT P6SM SKC
     FM281400 30010G20KT P6SM FEW050
     FM282200 30004KT P6SM BKN200
     FM290400 VRB03KT P6SM BKN080
     FM291000 VRB03KT P6SM OVC040=

USA.gov is the U.S. government's official web portal to all federal, state and local government web resources and services.